createdAt,value
2023-05-22T00:00:15.176Z,77.19
2023-05-22T00:02:43.540Z,77.46
2023-05-22T00:05:14.925Z,77.61
2023-05-22T00:07:45.426Z,77.84
2023-05-22T00:10:12.292Z,77.92
2023-05-22T00:12:39.077Z,78.40
2023-05-22T00:15:06.325Z,77.75
2023-05-22T00:17:34.042Z,78.09
2023-05-22T00:20:07.128Z,77.80
2023-05-22T00:22:37.497Z,78.20
2023-05-22T00:25:05.458Z,78.58
2023-05-22T00:27:32.501Z,78.14
2023-05-22T00:29:59.370Z,78.59
2023-05-22T00:32:26.610Z,78.59
2023-05-22T00:34:53.138Z,79.15
2023-05-22T00:37:20.312Z,78.95
2023-05-22T00:39:47.035Z,79.09
2023-05-22T00:42:13.833Z,79.30
2023-05-22T00:44:40.160Z,78.33
2023-05-22T00:47:06.616Z,79.18
2023-05-22T00:49:33.047Z,78.90
2023-05-22T00:52:00.762Z,79.63
2023-05-22T00:54:28.345Z,79.45
2023-05-22T00:56:54.982Z,79.94
2023-05-22T00:59:21.584Z,79.68
2023-05-22T01:01:48.322Z,79.80
2023-05-22T01:04:15.277Z,79.57
2023-05-22T01:06:41.923Z,79.95
2023-05-22T01:09:09.020Z,79.88
2023-05-22T01:11:58.524Z,79.96
2023-05-22T01:14:44.154Z,79.98
2023-05-22T01:17:28.537Z,80.46
2023-05-22T01:20:18.541Z,80.53
2023-05-22T01:23:18.529Z,80.61
2023-05-22T01:25:45.292Z,81.04
2023-05-22T01:28:42.610Z,80.82
2023-05-22T01:31:12.621Z,80.67
2023-05-22T01:33:46.162Z,80.76
2023-05-22T01:36:15.714Z,80.58
2023-05-22T01:38:43.163Z,80.97
2023-05-22T01:41:09.769Z,80.99
2023-05-22T01:43:36.746Z,81.01
2023-05-22T01:46:04.018Z,80.77
2023-05-22T01:48:30.477Z,80.83
2023-05-22T01:50:59.060Z,80.90
2023-05-22T01:53:42.256Z,80.76
2023-05-22T01:56:18.597Z,81.23
2023-05-22T01:59:04.367Z,81.01
2023-05-22T02:01:32.641Z,80.55
2023-05-22T02:04:01.028Z,80.56
2023-05-22T02:06:29.379Z,80.93
2023-05-22T02:08:56.855Z,80.74
2023-05-22T02:11:27.036Z,81.28
2023-05-22T02:13:53.381Z,81.39
2023-05-22T02:16:22.194Z,81.19
2023-05-22T02:18:48.776Z,80.90
2023-05-22T02:21:15.237Z,81.02
2023-05-22T02:23:41.641Z,81.84
2023-05-22T02:26:08.105Z,81.80
2023-05-22T02:28:34.631Z,81.46
2023-05-22T02:31:02.698Z,81.67
2023-05-22T02:33:29.858Z,81.59
2023-05-22T02:35:56.253Z,81.69
2023-05-22T02:38:22.680Z,81.36
2023-05-22T02:40:49.728Z,81.60
2023-05-22T02:43:16.099Z,81.38
2023-05-22T02:45:42.451Z,81.06
2023-05-22T02:48:08.910Z,81.21
2023-05-22T02:50:35.351Z,81.33
2023-05-22T02:53:01.875Z,81.54
2023-05-22T02:55:28.246Z,81.62
2023-05-22T02:57:54.715Z,81.44
2023-05-22T03:00:22.485Z,81.79
2023-05-22T03:02:49.112Z,81.40
2023-05-22T03:05:17.668Z,80.96
2023-05-22T03:07:48.170Z,81.82
2023-05-22T03:10:15.226Z,81.78
2023-05-22T03:12:41.682Z,81.71
2023-05-22T03:15:08.857Z,82.18
2023-05-22T03:17:35.337Z,81.85
2023-05-22T03:20:01.913Z,82.08
2023-05-22T03:22:28.376Z,82.16
2023-05-22T03:24:54.777Z,82.62
2023-05-22T03:27:21.269Z,81.94
2023-05-22T03:29:47.729Z,82.39
2023-05-22T03:32:14.115Z,83.21
2023-05-22T03:34:41.026Z,82.82
2023-05-22T03:37:08.961Z,82.90
2023-05-22T03:39:35.939Z,82.62
2023-05-22T03:42:02.438Z,82.37
2023-05-22T03:44:28.926Z,82.23
2023-05-22T03:46:55.555Z,82.67
2023-05-22T03:49:21.951Z,82.74
2023-05-22T03:51:48.449Z,82.50
2023-05-22T03:54:14.805Z,82.38
2023-05-22T03:56:41.408Z,83.01
2023-05-22T03:59:07.852Z,83.07
2023-05-22T04:01:34.545Z,82.69
2023-05-22T04:04:01.985Z,82.79
2023-05-22T04:06:33.204Z,83.11
2023-05-22T04:09:00.632Z,82.89
2023-05-22T04:11:27.075Z,82.89
2023-05-22T04:13:53.502Z,82.90
2023-05-22T04:16:20.697Z,82.78
2023-05-22T04:18:47.197Z,83.29
2023-05-22T04:21:13.887Z,82.95
2023-05-22T04:23:43.263Z,83.01
2023-05-22T04:26:10.348Z,83.31
2023-05-22T04:28:36.924Z,83.58
2023-05-22T04:31:06.295Z,83.36
2023-05-22T04:33:34.444Z,83.10
2023-05-22T04:36:02.230Z,83.46
2023-05-22T04:38:28.735Z,83.41
2023-05-22T04:40:55.207Z,83.56
2023-05-22T04:43:23.472Z,83.28
2023-05-22T04:45:49.906Z,83.38
2023-05-22T04:48:16.350Z,83.74
2023-05-22T04:50:46.579Z,83.74
2023-05-22T04:53:13.035Z,83.59
2023-05-22T04:55:39.792Z,83.75
2023-05-22T04:58:06.465Z,83.37
2023-05-22T05:00:33.275Z,83.38
2023-05-22T05:03:00.375Z,83.52
2023-05-22T05:05:27.061Z,83.76
2023-05-22T05:07:53.508Z,83.29
2023-05-22T05:10:20.088Z,83.15
2023-05-22T05:12:46.902Z,83.65
2023-05-22T05:15:13.570Z,83.76
2023-05-22T05:17:40.104Z,83.51
2023-05-22T05:20:08.678Z,83.57
2023-05-22T05:22:35.147Z,83.69
2023-05-22T05:25:01.876Z,83.28
2023-05-22T05:27:28.292Z,83.47
2023-05-22T05:29:54.851Z,83.42
2023-05-22T05:32:21.404Z,83.35
2023-05-22T05:34:47.817Z,83.61
2023-05-22T05:37:14.235Z,83.88
2023-05-22T05:39:40.824Z,83.92
2023-05-22T05:42:07.393Z,83.76
2023-05-22T05:44:33.889Z,83.87
2023-05-22T05:47:01.048Z,83.63
2023-05-22T05:49:27.600Z,83.68
2023-05-22T05:51:54.126Z,83.37
2023-05-22T05:54:21.125Z,83.52
2023-05-22T05:56:48.065Z,84.02
2023-05-22T05:59:14.561Z,83.67
2023-05-22T06:01:45.766Z,83.73
2023-05-22T06:04:13.145Z,83.80
2023-05-22T06:06:39.660Z,83.69
2023-05-22T06:09:06.621Z,84.26
2023-05-22T06:11:33.729Z,83.90
2023-05-22T06:14:02.747Z,83.86
2023-05-22T06:16:29.756Z,84.38
2023-05-22T06:18:58.722Z,83.88
2023-05-22T06:21:25.331Z,83.96
2023-05-22T06:23:51.796Z,84.52
2023-05-22T06:26:18.751Z,84.17
2023-05-22T06:28:45.623Z,83.88
2023-05-22T06:31:12.051Z,84.31
2023-05-22T06:33:40.585Z,84.43
2023-05-22T06:36:08.812Z,84.20
2023-05-22T06:38:35.300Z,84.29
2023-05-22T06:41:01.867Z,83.79
2023-05-22T06:43:28.260Z,84.29
2023-05-22T06:45:54.710Z,83.69
2023-05-22T06:48:21.082Z,84.09
2023-05-22T06:50:47.900Z,83.81
2023-05-22T06:53:14.342Z,84.15
2023-05-22T06:55:40.839Z,83.87
2023-05-22T06:58:07.254Z,84.20
2023-05-22T07:00:33.838Z,84.04
2023-05-22T07:03:00.507Z,83.67
2023-05-22T07:05:26.949Z,83.78
2023-05-22T07:07:53.456Z,83.59
2023-05-22T07:10:19.853Z,83.02
2023-05-22T07:12:46.308Z,83.41
2023-05-22T07:15:14.426Z,83.42
2023-05-22T07:17:41.796Z,83.36
2023-05-22T07:20:09.728Z,83.04
2023-05-22T07:22:36.214Z,83.21
2023-05-22T07:25:02.707Z,83.59
2023-05-22T07:27:29.183Z,83.52
2023-05-22T07:29:55.733Z,82.91
2023-05-22T07:32:22.267Z,81.78
2023-05-22T07:34:48.696Z,81.95
2023-05-22T07:37:15.376Z,81.55
2023-05-22T07:39:42.347Z,81.04
2023-05-22T07:42:08.850Z,81.35
2023-05-22T07:44:35.417Z,80.95
2023-05-22T07:47:01.800Z,80.78
2023-05-22T07:49:28.264Z,80.95
2023-05-22T07:51:54.782Z,80.88
2023-05-22T07:54:21.304Z,81.21
2023-05-22T07:56:47.800Z,80.51
2023-05-22T07:59:16.012Z,79.79
2023-05-22T08:01:42.432Z,80.01
2023-05-22T08:04:09.183Z,79.65
2023-05-22T08:06:35.748Z,79.39
2023-05-22T08:09:02.376Z,79.51
2023-05-22T08:11:29.071Z,78.69
2023-05-22T08:13:56.169Z,79.21
2023-05-22T08:16:23.031Z,78.66
2023-05-22T08:18:49.652Z,78.41
2023-05-22T08:21:16.186Z,78.71
2023-05-22T08:23:42.538Z,78.43
2023-05-22T08:26:09.493Z,78.37
2023-05-22T08:28:36.784Z,78.21
2023-05-22T08:31:03.265Z,77.70
2023-05-22T08:33:29.812Z,78.72
2023-05-22T08:35:56.168Z,78.20
2023-05-22T08:38:22.600Z,76.61
2023-05-22T08:40:52.025Z,76.76
2023-05-22T08:43:20.849Z,76.35
2023-05-22T08:45:59.198Z,75.98
2023-05-22T08:48:30.678Z,75.46
2023-05-22T08:51:02.148Z,75.25
2023-05-22T08:53:30.849Z,74.16
2023-05-22T08:55:57.391Z,74.02
2023-05-22T08:58:24.480Z,74.39
2023-05-22T09:00:52.408Z,73.98
2023-05-22T09:03:21.350Z,73.09
2023-05-22T09:05:49.321Z,73.11
2023-05-22T09:08:20.554Z,72.54
2023-05-22T09:10:47.843Z,73.25
2023-05-22T09:13:25.463Z,72.15
2023-05-22T09:15:52.093Z,71.79
2023-05-22T09:18:18.846Z,72.37
2023-05-22T09:20:45.305Z,71.08
2023-05-22T09:23:18.337Z,70.17
2023-05-22T09:25:45.589Z,70.33
2023-05-22T09:28:13.151Z,71.17
2023-05-22T09:30:40.007Z,69.10
2023-05-22T09:33:08.943Z,70.16
2023-05-22T09:35:37.139Z,68.60
2023-05-22T09:38:03.855Z,67.59
2023-05-22T09:40:34.680Z,67.86
2023-05-22T09:43:06.677Z,69.00
2023-05-22T09:45:35.264Z,68.64
2023-05-22T09:48:09.093Z,68.66
2023-05-22T09:50:37.026Z,66.16
2023-05-22T09:53:04.933Z,66.05
2023-05-22T09:55:32.329Z,65.75
2023-05-22T09:58:03.559Z,64.14
2023-05-22T10:00:30.540Z,65.25
2023-05-22T10:03:03.551Z,64.36
2023-05-22T10:05:33.738Z,64.44
2023-05-22T10:08:10.858Z,64.71
2023-05-22T10:10:39.147Z,64.16
2023-05-22T10:13:06.496Z,63.90
2023-05-22T10:15:33.058Z,63.38
2023-05-22T10:18:00.256Z,64.02
2023-05-22T10:20:28.033Z,62.65
2023-05-22T10:22:55.423Z,63.39
2023-05-22T10:25:22.754Z,63.06
2023-05-22T10:27:52.678Z,63.72
2023-05-22T10:30:34.111Z,63.10
2023-05-22T10:33:28.640Z,61.98
2023-05-22T10:36:01.778Z,60.54
2023-05-22T10:38:36.266Z,61.29
2023-05-22T10:41:06.715Z,62.40
2023-05-22T10:43:33.280Z,58.84
2023-05-22T10:46:04.319Z,60.60
2023-05-22T10:48:38.144Z,57.81
2023-05-22T10:51:05.076Z,58.50
2023-05-22T10:53:33.087Z,57.43
2023-05-22T10:56:02.559Z,57.54
2023-05-22T10:58:30.599Z,57.94
2023-05-22T11:01:10.936Z,56.30
2023-05-22T11:03:56.860Z,58.10
2023-05-22T11:06:36.337Z,56.90
2023-05-22T11:09:24.591Z,56.36
2023-05-22T11:12:12.553Z,57.43
2023-05-22T11:14:39.560Z,56.88
2023-05-22T11:17:06.667Z,57.29
2023-05-22T11:19:33.443Z,56.91
2023-05-22T11:22:01.905Z,55.40
2023-05-22T11:24:32.690Z,57.70
2023-05-22T11:27:06.598Z,57.26
2023-05-22T11:29:33.789Z,55.38
2023-05-22T11:32:01.388Z,55.20
2023-05-22T11:34:28.101Z,55.37
2023-05-22T11:36:59.662Z,54.07
2023-05-22T11:39:26.623Z,53.64
2023-05-22T11:41:53.165Z,54.16
2023-05-22T11:44:19.776Z,54.28
2023-05-22T11:46:46.693Z,53.59
2023-05-22T11:49:13.333Z,53.43
2023-05-22T11:51:40.474Z,52.57
2023-05-22T11:54:07.708Z,52.65
2023-05-22T11:56:34.256Z,50.89
2023-05-22T11:59:01.404Z,50.77
2023-05-22T12:01:27.823Z,52.01
2023-05-22T12:03:55.027Z,52.07
2023-05-22T12:06:21.781Z,52.50
2023-05-22T12:08:48.257Z,52.20
2023-05-22T12:11:14.730Z,50.96
2023-05-22T12:13:41.330Z,51.33
2023-05-22T12:16:25.158Z,51.92
2023-05-22T12:18:54.854Z,52.76
2023-05-22T12:21:21.724Z,51.33
2023-05-22T12:23:52.556Z,51.88
2023-05-22T12:26:19.227Z,52.31
2023-05-22T12:28:45.721Z,52.35
2023-05-22T12:31:20.454Z,51.89
2023-05-22T12:33:46.915Z,51.52
2023-05-22T12:36:13.315Z,51.41
2023-05-22T12:38:41.146Z,52.25
2023-05-22T12:41:07.544Z,52.69
2023-05-22T12:43:33.905Z,52.67
2023-05-22T12:46:02.468Z,53.11
2023-05-22T12:48:29.311Z,53.36
2023-05-22T12:50:55.849Z,54.44
2023-05-22T12:53:22.325Z,53.45
2023-05-22T12:55:48.751Z,52.58
2023-05-22T12:58:15.307Z,53.38
2023-05-22T13:00:41.913Z,53.72
2023-05-22T13:03:09.668Z,54.23
2023-05-22T13:05:36.187Z,54.04
2023-05-22T13:08:02.605Z,55.33
2023-05-22T13:10:29.309Z,56.31
2023-05-22T13:12:55.880Z,57.39
2023-05-22T13:15:22.490Z,58.27
2023-05-22T13:17:48.963Z,58.67
2023-05-22T13:20:15.603Z,59.04
2023-05-22T13:22:42.100Z,59.07
2023-05-22T13:25:08.950Z,57.82
2023-05-22T13:27:35.332Z,58.50
2023-05-22T13:30:01.903Z,58.40
2023-05-22T13:32:28.405Z,58.50
2023-05-22T13:34:54.782Z,57.89
2023-05-22T13:37:21.353Z,57.49
2023-05-22T13:39:47.848Z,55.85
2023-05-22T13:42:14.430Z,54.80
2023-05-22T13:44:40.933Z,54.58
2023-05-22T13:47:07.423Z,55.18
2023-05-22T13:49:33.885Z,55.70
2023-05-22T13:52:00.454Z,54.59
2023-05-22T13:54:27.471Z,54.00
2023-05-22T13:56:54.022Z,54.37
2023-05-22T13:59:20.723Z,54.53
2023-05-22T14:01:47.101Z,54.66
2023-05-22T14:04:13.517Z,54.18
2023-05-22T14:06:39.872Z,54.79
2023-05-22T14:09:07.863Z,55.16
2023-05-22T14:11:34.347Z,55.52
2023-05-22T14:14:00.792Z,55.23
2023-05-22T14:16:27.285Z,56.17
2023-05-22T14:18:53.803Z,55.32
2023-05-22T14:21:20.387Z,55.71
2023-05-22T14:23:46.861Z,55.58
2023-05-22T14:26:14.392Z,56.18
2023-05-22T14:28:41.322Z,56.39
2023-05-22T14:31:07.765Z,56.76
2023-05-22T14:33:35.825Z,56.25
2023-05-22T14:36:02.532Z,55.92
2023-05-22T14:38:33.654Z,56.58
2023-05-22T14:41:00.998Z,56.42
2023-05-22T14:43:27.502Z,57.23
2023-05-22T14:45:55.346Z,56.65
2023-05-22T14:48:26.160Z,56.07
2023-05-22T14:50:53.733Z,56.16
2023-05-22T14:53:20.727Z,55.99
2023-05-22T14:55:47.620Z,56.22
2023-05-22T14:58:14.397Z,56.15
2023-05-22T15:00:42.636Z,55.00
2023-05-22T15:03:09.094Z,55.04
2023-05-22T15:05:35.599Z,55.83
2023-05-22T15:08:02.085Z,54.90
2023-05-22T15:10:28.624Z,55.71
2023-05-22T15:12:55.059Z,55.89
2023-05-22T15:15:21.492Z,55.54
2023-05-22T15:17:47.922Z,54.07
2023-05-22T15:20:14.372Z,53.62
2023-05-22T15:22:40.891Z,53.55
2023-05-22T15:25:09.292Z,54.78
2023-05-22T15:27:36.033Z,54.43
2023-05-22T15:30:03.959Z,54.17
2023-05-22T15:32:32.161Z,53.27
2023-05-22T15:34:58.559Z,52.84
2023-05-22T15:37:24.979Z,51.76
2023-05-22T15:39:51.455Z,51.84
2023-05-22T15:42:17.996Z,52.16
2023-05-22T15:44:44.484Z,51.96
2023-05-22T15:47:10.876Z,51.54
2023-05-22T15:49:37.321Z,51.46
2023-05-22T15:52:03.845Z,52.33
2023-05-22T15:54:30.279Z,51.14
2023-05-22T15:56:56.744Z,52.12
2023-05-22T15:59:23.166Z,50.95
2023-05-22T16:01:49.595Z,49.75
2023-05-22T16:04:16.170Z,48.98
2023-05-22T16:06:42.615Z,48.82
2023-05-22T16:09:09.993Z,48.54
2023-05-22T16:11:37.825Z,49.54
2023-05-22T16:14:04.719Z,49.22
2023-05-22T16:16:31.337Z,49.26
2023-05-22T16:18:57.839Z,49.45
2023-05-22T16:21:24.446Z,48.91
2023-05-22T16:23:50.879Z,48.70
2023-05-22T16:26:17.313Z,48.96
2023-05-22T16:28:43.913Z,48.36
2023-05-22T16:31:12.761Z,47.83
2023-05-22T16:33:39.198Z,47.00
2023-05-22T16:36:05.915Z,47.06
2023-05-22T16:38:32.437Z,44.67
2023-05-22T16:40:59.185Z,41.01
2023-05-22T16:43:25.582Z,39.13
2023-05-22T16:45:52.058Z,37.22
2023-05-22T16:48:18.759Z,36.50
2023-05-22T16:50:46.497Z,34.82
2023-05-22T16:53:13.635Z,33.79
2023-05-22T16:55:40.500Z,33.55
2023-05-22T16:58:07.206Z,32.80
2023-05-22T17:00:33.609Z,32.42
2023-05-22T17:03:00.553Z,32.98
2023-05-22T17:05:27.412Z,32.79
2023-05-22T17:07:53.785Z,32.25
2023-05-22T17:10:20.193Z,31.80
2023-05-22T17:12:46.643Z,31.54
2023-05-22T17:15:13.229Z,31.31
2023-05-22T17:17:39.728Z,31.54
2023-05-22T17:20:07.227Z,31.28
2023-05-22T17:22:33.957Z,33.16
2023-05-22T17:25:00.879Z,34.43
2023-05-22T17:33:28.695Z,37.04
2023-05-22T17:35:55.319Z,37.31
2023-05-22T17:38:21.969Z,37.03
2023-05-22T17:40:49.059Z,36.94
2023-05-22T17:43:16.581Z,38.39
2023-05-22T17:45:49.408Z,40.02
2023-05-22T17:48:21.484Z,43.63
2023-05-22T17:50:48.556Z,46.00
2023-05-22T17:53:17.709Z,47.66
2023-05-22T17:55:46.769Z,48.36
2023-05-22T17:58:14.209Z,49.54
2023-05-22T18:00:40.953Z,50.05
2023-05-22T18:03:07.882Z,50.07
2023-05-22T18:05:35.493Z,50.70
2023-05-22T18:08:02.149Z,51.61
2023-05-22T18:10:28.900Z,52.38
2023-05-22T18:12:55.476Z,52.23
2023-05-22T18:15:22.177Z,52.50
2023-05-22T18:17:48.667Z,53.00
2023-05-22T18:20:16.690Z,53.23
2023-05-22T18:22:43.510Z,52.93
2023-05-22T18:25:10.410Z,53.86
2023-05-22T18:27:36.773Z,54.37
2023-05-22T18:30:05.050Z,54.25
2023-05-22T18:32:31.896Z,54.97
2023-05-22T18:34:58.928Z,55.10
2023-05-22T18:37:26.879Z,55.32
2023-05-22T18:39:53.360Z,55.38
2023-05-22T18:42:19.940Z,56.01
2023-05-22T18:44:48.217Z,55.83
2023-05-22T18:47:15.618Z,55.22
2023-05-22T18:49:42.154Z,56.11
2023-05-22T18:52:08.549Z,55.78
2023-05-22T18:54:34.992Z,55.38
2023-05-22T18:57:01.439Z,56.28
2023-05-22T18:59:27.821Z,56.54
2023-05-22T19:01:54.150Z,56.13
2023-05-22T19:04:20.588Z,56.82
2023-05-22T19:06:46.952Z,57.13
2023-05-22T19:09:13.570Z,56.86
2023-05-22T19:11:39.946Z,58.25
2023-05-22T19:14:06.337Z,57.34
2023-05-22T19:16:32.864Z,57.79
2023-05-22T19:18:59.274Z,58.91
2023-05-22T19:21:26.661Z,58.06
2023-05-22T19:23:53.210Z,59.12
2023-05-22T19:26:19.691Z,59.39
2023-05-22T19:28:46.146Z,60.12
2023-05-22T19:31:12.592Z,59.45
2023-05-22T19:33:39.355Z,60.27
2023-05-22T19:36:06.754Z,60.26
2023-05-22T19:38:33.341Z,60.63
2023-05-22T19:40:59.790Z,60.89
2023-05-22T19:43:26.303Z,61.31
2023-05-22T19:45:52.827Z,61.46
2023-05-22T19:48:19.745Z,61.82
2023-05-22T19:50:46.213Z,62.14
2023-05-22T19:53:12.796Z,61.56
2023-05-22T19:55:39.157Z,62.92
2023-05-22T19:58:05.712Z,62.56
2023-05-22T20:00:33.330Z,62.93
2023-05-22T20:02:59.857Z,63.00
2023-05-22T20:05:26.441Z,62.65
2023-05-22T20:07:52.853Z,62.24
2023-05-22T20:10:19.388Z,62.42
2023-05-22T20:12:45.905Z,62.27
2023-05-22T20:15:14.759Z,62.71
2023-05-22T20:17:42.233Z,63.00
2023-05-22T20:20:09.297Z,62.79
2023-05-22T20:22:35.990Z,62.36
2023-05-22T20:25:05.321Z,62.66
2023-05-22T20:27:31.829Z,62.84
2023-05-22T20:30:00.110Z,62.53
2023-05-22T20:32:26.969Z,63.37
2023-05-22T20:34:55.246Z,62.74
2023-05-22T20:37:22.288Z,63.07
2023-05-22T20:39:49.962Z,63.54
2023-05-22T20:42:17.805Z,63.86
2023-05-22T20:44:44.526Z,63.96
2023-05-22T20:47:10.972Z,63.72
2023-05-22T20:49:38.505Z,63.75
2023-05-22T20:52:05.640Z,63.47
2023-05-22T20:54:34.472Z,62.68
2023-05-22T20:57:01.921Z,62.50
2023-05-22T20:59:28.937Z,62.28
2023-05-22T21:01:56.979Z,62.90
2023-05-22T21:04:23.931Z,62.65
2023-05-22T21:06:50.916Z,62.91
2023-05-22T21:09:17.320Z,63.20
2023-05-22T21:11:43.665Z,63.33
2023-05-22T21:14:10.053Z,63.83
2023-05-22T21:16:39.116Z,63.14
2023-05-22T21:19:07.158Z,63.14
2023-05-22T21:21:33.766Z,63.36
2023-05-22T21:24:00.348Z,63.62
2023-05-22T21:26:27.457Z,63.21
2023-05-22T21:28:54.578Z,63.61
2023-05-22T21:31:21.575Z,63.48
2023-05-22T21:33:48.088Z,64.04
2023-05-22T21:36:14.525Z,64.71
2023-05-22T21:38:41.088Z,64.84
2023-05-22T21:41:07.499Z,64.67
2023-05-22T21:43:33.964Z,64.92
2023-05-22T21:46:00.408Z,64.86
2023-05-22T21:48:26.854Z,65.15
2023-05-22T21:50:53.294Z,65.19
2023-05-22T21:53:19.718Z,65.60
2023-05-22T21:55:47.167Z,65.46
2023-05-22T21:58:13.674Z,65.13
2023-05-22T22:00:41.111Z,65.35
2023-05-22T22:03:07.912Z,65.66
2023-05-22T22:05:35.811Z,65.65
2023-05-22T22:08:02.441Z,65.79
2023-05-22T22:10:28.790Z,65.42
2023-05-22T22:12:55.224Z,65.64
2023-05-22T22:15:21.734Z,65.76
2023-05-22T22:17:48.304Z,65.67
2023-05-22T22:20:14.761Z,65.51
2023-05-22T22:22:41.217Z,65.50
2023-05-22T22:25:08.097Z,65.79
2023-05-22T22:27:34.556Z,65.98
2023-05-22T22:30:01.990Z,65.98
2023-05-22T22:32:28.491Z,65.98
2023-05-22T22:34:55.114Z,65.95
2023-05-22T22:37:21.920Z,66.12
2023-05-22T22:39:48.373Z,66.29
2023-05-22T22:42:14.849Z,66.21
2023-05-22T22:44:41.286Z,66.71
2023-05-22T22:47:07.807Z,67.02
2023-05-22T22:49:34.185Z,67.41
2023-05-22T22:52:00.777Z,67.71
2023-05-22T22:54:27.277Z,67.53
2023-05-22T22:56:53.881Z,67.52
2023-05-22T22:59:20.265Z,67.07
2023-05-22T23:01:46.961Z,67.04
2023-05-22T23:04:13.935Z,67.00
2023-05-22T23:06:43.114Z,66.82
2023-05-22T23:09:11.030Z,67.15
2023-05-22T23:11:38.444Z,66.99
2023-05-22T23:14:08.768Z,67.30
2023-05-22T23:16:36.515Z,67.43
2023-05-22T23:19:04.001Z,67.49
2023-05-22T23:21:31.587Z,67.29
2023-05-22T23:23:58.060Z,67.82
2023-05-22T23:26:24.499Z,67.67
2023-05-22T23:28:51.111Z,68.03
2023-05-22T23:31:17.736Z,68.31
2023-05-22T23:33:44.122Z,68.13
2023-05-22T23:36:10.660Z,68.09
2023-05-22T23:38:37.150Z,67.98
2023-05-22T23:41:03.548Z,68.50
2023-05-22T23:43:29.993Z,68.44
2023-05-22T23:45:56.445Z,68.89
2023-05-22T23:48:22.845Z,68.83
2023-05-22T23:50:49.252Z,68.87
2023-05-22T23:53:15.709Z,68.70
2023-05-22T23:55:42.323Z,68.71
2023-05-22T23:58:09.378Z,68.93
